Rapports METAR des aéroports proches

 

LFSI - St. Dizier/Robin, France
Distance from station: SO 26km
Mise à jour: 19/07/2018 18:30
clair
clair
 Wind from NO
Vent: NO 13 km/h
Température: 30°C
Point de rosée: 10°C
Humidité: 29%
Baromètre: 1015 hPa
Résumé: clair
Visibility: greater than 10 km
2018/07/19 16:30 LFSI 191630Z AUTO 32007KT 270V350 CAVOK 30/10 Q1015
LFSO - Nancy/Ochey (faf, France
Distance from station: ESE 62km
Mise à jour: 19/07/2018 18:30
clair
clair
 Wind from E
Vent: E 11 km/h
Température: 28°C
Point de rosée: 9°C
Humidité: 30%
Baromètre: 1016 hPa
Résumé: clair
Visibility: greater than 10 km
2018/07/19 16:30 LFSO 191630Z AUTO 10006KT 060V150 CAVOK 28/09 Q1016 NOSIG
 
LFOK - Chalons/Vatry Fa, France
Distance from station: O 73km
Mise à jour: 19/07/2018 18:30
clair
clair
 Wind from NNE
Vent: NNE 15 km/h
Température: 28°C
Point de rosée: 9°C
Humidité: 30%
Baromètre: 1015 hPa
Résumé: clair
Visibility: greater than 10 km
2018/07/19 16:30 LFOK 191630Z AUTO 02008KT CAVOK 28/09 Q1015 NOSIG
LFSN - Nancy/Essey, France
Distance from station: E 77km
Mise à jour: 19/07/2018 18:30
clair
clair
 Wind from N
Vent: N 11 km/h
Température: 28°C
Point de rosée: 11°C
Humidité: 35%
Baromètre: 1015 hPa
Résumé: clair
Visibility: greater than 10 km
2018/07/19 16:30 LFSN 191630Z AUTO 01006KT CAVOK 28/11 Q1015
 
LFJL - Metz-Nancy-Lorra, France
Distance from station: ENE 82km
Mise à jour: 19/07/2018 18:30
clair
clair
 Wind from varies
Vent: varies 6 km/h
Température: 28°C
Point de rosée: 10°C
Humidité: 32%
Baromètre: 1016 hPa
Résumé: clair
Visibility: greater than 10 km
2018/07/19 16:30 LFJL 191630Z AUTO VRB03KT CAVOK 28/10 Q1016 NOSIG
LFQA - Reims/Prunay, France
Distance from station: ONO 89km
Mise à jour: 19/07/2018 18:30
clair
clair
 Wind from NNO
Vent: NNO 17 km/h
Température: 29°C
Point de rosée: 9°C
Humidité: 29%
Baromètre: 1015 hPa
Résumé: clair
Visibility: greater than 10 km
2018/07/19 16:30 LFQA 191630Z AUTO 34009KT 320V020 CAVOK 29/09 Q1015
 
LFQB - Troyes/Barberey, France
Distance from station: OSO 99km
Mise à jour: 19/07/2018 18:30

 Wind from NNO
Vent: NNO 19 km/h
Température: 29°C
Point de rosée: 10°C
Humidité: 31%
Baromètre: 1015 hPa
Visibility: 10 km
2018/07/19 16:30 LFQB 191630Z AUTO 34010KT 9999 ////// 29/10 Q1015
ELLX - Luxembourg (aut), Luxembourg
Distance from station: NE 122km
Mise à jour: 19/07/2018 18:50
clair
clair
 Wind from NO
Vent: NO 13 km/h
Température: 28°C
Point de rosée: 9°C
Humidité: 30%
Baromètre: 1016 hPa
Résumé: clair
Visibility: greater than 10 km
2018/07/19 16:50 ELLX 191650Z 32007KT 290V010 CAVOK 28/09 Q1016 NOSIG